Details From LIML - Milano Linate
To LIPH - TREVISO
Flight Number -
Tags generated
Created
Modified
Stats Distance 123 nm / 229 km
Max Altitude 4,600 ft / 1,402 m
Waypoints 3
Social Downloads 8
Likes 0
Share VATSIM

Download

Looking for another format? Having issues loading an existing format? Contact us
Advertisement - Login to hide

Notes

Basic altitude profile: - Ascent Rate: 2500ft/min - Ascent Speed: 250kts - Cruise Altitude: 35000ft - Cruise Speed: 420kts - Descent Rate: 1500ft/min - Descent Speed: 250kts Options: - Use NATs: yes - Use PACOTS: yes - Use low airways: yes - Use high airways: yes

Route

LIML VIC LIPH

ID Type Via Altitude Latitude Longitude Leg Dist Tot Dist Heading (true) Name
O LIML APT - 0 ft / 0 m 45.45030˚ 9.27280˚ - 0 nm - Milano Linate
VIC VOR - 4,600 ft / 1,402 m 45.63720˚ 11.67638˚ 101 nm 101 nm 83° / 85° VICENZA VOR-DME
O LIPH APT - 0 ft / 0 m 45.64850˚ 12.19414˚ 21 nm 123 nm 88° / 88° TREVISO

Altitude Profile

Advertisement - Login to hide

LIML

Details ICAO LIML (LIN)
Name Milano Linate
Region Italy
Timezone Europe/Rome (UTC+1.0)
Stats Elevation 353 ft / 108 m (AMSL)
Location 45.450302° 9.272801°
Runways 2
Magnetic Variation 2.502° E

METAR

LIML 180850Z 00000KT 9999 SCT090 M00/M05 Q1023 NOSIG

Decode

TAF

TAF LIML 180500Z 1806/1906 07005KT CAVOK

Decode

Departure Runways

ID Width Length Bearing (true) Bearing (mag) Surface Threshold Offset Overrun Length
17 72 ft / 22 m 1,975 ft / 602 m 175.64° 173.14° Asphalt 200 ft / 61 m 0 ft / 0 m
18 197 ft / 60 m 8,017 ft / 2,443 m 175.67° 173.17° Asphalt 0 ft / 0 m 190 ft / 58 m
35 72 ft / 22 m 1,975 ft / 602 m 355.64° 353.14° Asphalt 200 ft / 61 m 0 ft / 0 m
36 197 ft / 60 m 8,017 ft / 2,443 m 355.68° 353.18° Asphalt 0 ft / 0 m 980 ft / 299 m

LIPH

Details ICAO LIPH (TSF)
Name TREVISO
Region Italy
Timezone Europe/Rome (UTC+1.0)
Stats Elevation 59 ft / 18 m (AMSL)
Location 45.648499° 12.194136°
Runways 1
Magnetic Variation 3.153° E

METAR

LIPH 180820Z VRB01KT CAVOK 00/M04 Q1023

Decode

TAF

TAF LIPH 180500Z 1806/1906 02006KT 9999 FEW030

Decode

Destination Runways

ID Width Length Bearing (true) Bearing (mag) Surface Threshold Offset Overrun Length
07 144 ft / 44 m 7,919 ft / 2,414 m 69.18° 66.03° Asphalt 254 ft / 77 m 975 ft / 297 m
25 144 ft / 44 m 7,919 ft / 2,414 m 249.20° 246.05° Asphalt 389 ft / 119 m 0 ft / 0 m

Approach Navaids

Runway Type Ident Frequency Range Bearing (true) Bearing (mag) Slope Elevation
07 Localiser TRE 109.30 MHz 18 nm / 33 km 69.20° 66.05° - 51 ft / 16 m (AMSL)
07 Glidescope TRE 109.30 MHz 10 nm / 19 km 69.19° 66.04° 3.00° 56 ft / 17 m (AMSL)

Popular Alternatives